sensor_id;sensor_type;location;lat;lon;timestamp;P1;durP1;ratioP1;P2;durP2;ratioP2
1925;SDS011;964;42.606;23.588;2022-07-09T00:00:09;8.27;;;4.90;;
1925;SDS011;964;42.606;23.588;2022-07-09T00:02:37;6.90;;;5.50;;
1925;SDS011;964;42.606;23.588;2022-07-09T00:05:04;5.53;;;5.03;;
1925;SDS011;964;42.606;23.588;2022-07-09T00:07:31;5.57;;;4.47;;
1925;SDS011;964;42.606;23.588;2022-07-09T00:09:59;5.50;;;5.00;;
1925;SDS011;964;42.606;23.588;2022-07-09T00:12:26;7.20;;;4.30;;
1925;SDS011;964;42.606;23.588;2022-07-09T00:14:52;5.90;;;4.50;;
1925;SDS011;964;42.606;23.588;2022-07-09T00:17:19;5.43;;;4.93;;
1925;SDS011;964;42.606;23.588;2022-07-09T00:19:46;5.00;;;4.60;;
1925;SDS011;964;42.606;23.588;2022-07-09T00:22:13;7.00;;;5.13;;
1925;SDS011;964;42.606;23.588;2022-07-09T00:24:39;5.90;;;5.30;;
1925;SDS011;964;42.606;23.588;2022-07-09T00:27:07;5.37;;;4.80;;
1925;SDS011;964;42.606;23.588;2022-07-09T00:29:34;5.30;;;4.80;;
1925;SDS011;964;42.606;23.588;2022-07-09T00:32:01;6.13;;;5.53;;
1925;SDS011;964;42.606;23.588;2022-07-09T00:34:27;5.37;;;4.50;;
1925;SDS011;964;42.606;23.588;2022-07-09T00:36:54;6.07;;;5.40;;
1925;SDS011;964;42.606;23.588;2022-07-09T00:39:21;6.33;;;5.73;;
1925;SDS011;964;42.606;23.588;2022-07-09T00:41:47;6.30;;;5.20;;
1925;SDS011;964;42.606;23.588;2022-07-09T00:44:15;5.73;;;5.10;;
1925;SDS011;964;42.606;23.588;2022-07-09T00:46:42;6.60;;;5.37;;
1925;SDS011;964;42.606;23.588;2022-07-09T00:49:09;5.90;;;5.30;;
1925;SDS011;964;42.606;23.588;2022-07-09T00:51:36;6.13;;;5.53;;
1925;SDS011;964;42.606;23.588;2022-07-09T00:54:04;10.67;;;6.20;;
1925;SDS011;964;42.606;23.588;2022-07-09T00:56:31;6.63;;;5.93;;
1925;SDS011;964;42.606;23.588;2022-07-09T00:58:58;7.37;;;5.93;;
1925;SDS011;964;42.606;23.588;2022-07-09T01:01:27;6.10;;;5.50;;
1925;SDS011;964;42.606;23.588;2022-07-09T01:03:54;6.93;;;6.33;;
1925;SDS011;964;42.606;23.588;2022-07-09T01:06:20;7.23;;;6.50;;
1925;SDS011;964;42.606;23.588;2022-07-09T01:08:47;7.37;;;6.67;;
1925;SDS011;964;42.606;23.588;2022-07-09T01:11:14;11.20;;;7.70;;
1925;SDS011;964;42.606;23.588;2022-07-09T01:13:41;8.43;;;7.53;;
1925;SDS011;964;42.606;23.588;2022-07-09T01:16:11;7.77;;;7.00;;
1925;SDS011;964;42.606;23.588;2022-07-09T01:18:42;10.30;;;7.53;;
1925;SDS011;964;42.606;23.588;2022-07-09T01:21:11;10.23;;;9.13;;
1925;SDS011;964;42.606;23.588;2022-07-09T01:23:38;10.00;;;8.93;;
1925;SDS011;964;42.606;23.588;2022-07-09T01:26:04;12.03;;;9.03;;
1925;SDS011;964;42.606;23.588;2022-07-09T01:28:32;12.30;;;9.47;;
1925;SDS011;964;42.606;23.588;2022-07-09T01:30:59;10.17;;;8.90;;
1925;SDS011;964;42.606;23.588;2022-07-09T01:33:26;13.30;;;10.90;;
1925;SDS011;964;42.606;23.588;2022-07-09T01:35:53;13.97;;;11.10;;
1925;SDS011;964;42.606;23.588;2022-07-09T01:38:21;12.43;;;11.03;;
1925;SDS011;964;42.606;23.588;2022-07-09T01:40:48;13.83;;;10.80;;
1925;SDS011;964;42.606;23.588;2022-07-09T01:43:14;11.33;;;10.03;;
1925;SDS011;964;42.606;23.588;2022-07-09T01:45:41;14.57;;;11.50;;
1925;SDS011;964;42.606;23.588;2022-07-09T01:48:08;29.13;;;11.00;;
1925;SDS011;964;42.606;23.588;2022-07-09T01:50:34;11.83;;;9.47;;
1925;SDS011;964;42.606;23.588;2022-07-09T01:53:01;11.60;;;9.57;;
1925;SDS011;964;42.606;23.588;2022-07-09T01:55:30;11.30;;;8.20;;
1925;SDS011;964;42.606;23.588;2022-07-09T01:57:57;11.43;;;9.10;;
1925;SDS011;964;42.606;23.588;2022-07-09T02:00:24;9.53;;;8.10;;
1925;SDS011;964;42.606;23.588;2022-07-09T02:02:52;9.33;;;7.93;;
1925;SDS011;964;42.606;23.588;2022-07-09T02:05:19;11.70;;;9.07;;
1925;SDS011;964;42.606;23.588;2022-07-09T02:07:46;9.10;;;7.67;;
1925;SDS011;964;42.606;23.588;2022-07-09T02:10:13;10.67;;;8.17;;
1925;SDS011;964;42.606;23.588;2022-07-09T02:12:41;7.93;;;7.10;;
1925;SDS011;964;42.606;23.588;2022-07-09T02:15:08;10.27;;;7.70;;
1925;SDS011;964;42.606;23.588;2022-07-09T02:17:35;8.97;;;6.70;;
1925;SDS011;964;42.606;23.588;2022-07-09T02:20:03;8.10;;;7.30;;
1925;SDS011;964;42.606;23.588;2022-07-09T02:22:30;8.40;;;7.13;;
1925;SDS011;964;42.606;23.588;2022-07-09T02:24:57;7.23;;;6.43;;
1925;SDS011;964;42.606;23.588;2022-07-09T02:27:24;8.00;;;6.43;;
1925;SDS011;964;42.606;23.588;2022-07-09T02:29:52;9.37;;;6.80;;
1925;SDS011;964;42.606;23.588;2022-07-09T02:32:19;7.30;;;6.43;;
1925;SDS011;964;42.606;23.588;2022-07-09T02:34:45;10.67;;;7.47;;
1925;SDS011;964;42.606;23.588;2022-07-09T02:37:12;7.30;;;6.47;;
1925;SDS011;964;42.606;23.588;2022-07-09T02:39:39;7.13;;;6.43;;
1925;SDS011;964;42.606;23.588;2022-07-09T02:42:05;7.23;;;6.53;;
1925;SDS011;964;42.606;23.588;2022-07-09T02:44:32;6.80;;;6.10;;
1925;SDS011;964;42.606;23.588;2022-07-09T02:47:00;9.57;;;6.70;;
1925;SDS011;964;42.606;23.588;2022-07-09T02:49:26;14.33;;;6.93;;
1925;SDS011;964;42.606;23.588;2022-07-09T02:51:54;8.57;;;6.43;;
1925;SDS011;964;42.606;23.588;2022-07-09T02:54:22;12.77;;;7.07;;
1925;SDS011;964;42.606;23.588;2022-07-09T02:56:49;7.80;;;6.27;;
1925;SDS011;964;42.606;23.588;2022-07-09T02:59:16;7.97;;;7.17;;
1925;SDS011;964;42.606;23.588;2022-07-09T03:01:42;8.13;;;6.90;;
1925;SDS011;964;42.606;23.588;2022-07-09T03:04:11;6.50;;;5.90;;
1925;SDS011;964;42.606;23.588;2022-07-09T03:06:38;10.33;;;7.23;;
1925;SDS011;964;42.606;23.588;2022-07-09T03:09:05;7.23;;;6.33;;
1925;SDS011;964;42.606;23.588;2022-07-09T03:11:32;6.97;;;5.47;;
1925;SDS011;964;42.606;23.588;2022-07-09T03:13:58;6.43;;;5.83;;
1925;SDS011;964;42.606;23.588;2022-07-09T03:16:25;7.93;;;6.23;;
1925;SDS011;964;42.606;23.588;2022-07-09T03:18:52;6.87;;;6.27;;
1925;SDS011;964;42.606;23.588;2022-07-09T03:21:21;5.50;;;5.00;;
1925;SDS011;964;42.606;23.588;2022-07-09T03:23:48;10.60;;;5.37;;
1925;SDS011;964;42.606;23.588;2022-07-09T03:26:14;6.17;;;5.57;;
1925;SDS011;964;42.606;23.588;2022-07-09T03:28:41;6.60;;;5.57;;
1925;SDS011;964;42.606;23.588;2022-07-09T03:31:08;7.30;;;5.20;;
1925;SDS011;964;42.606;23.588;2022-07-09T03:33:34;5.80;;;5.20;;
1925;SDS011;964;42.606;23.588;2022-07-09T03:36:01;5.13;;;4.63;;
1925;SDS011;964;42.606;23.588;2022-07-09T03:38:30;7.47;;;5.23;;
1925;SDS011;964;42.606;23.588;2022-07-09T03:40:57;5.23;;;4.83;;
1925;SDS011;964;42.606;23.588;2022-07-09T03:43:23;4.93;;;4.53;;
1925;SDS011;964;42.606;23.588;2022-07-09T03:45:50;6.30;;;4.60;;
1925;SDS011;964;42.606;23.588;2022-07-09T03:48:17;6.80;;;5.43;;
1925;SDS011;964;42.606;23.588;2022-07-09T03:50:44;8.50;;;4.80;;
1925;SDS011;964;42.606;23.588;2022-07-09T03:53:11;6.27;;;4.67;;
1925;SDS011;964;42.606;23.588;2022-07-09T03:55:39;4.73;;;4.33;;
1925;SDS011;964;42.606;23.588;2022-07-09T03:58:05;10.43;;;4.50;;
1925;SDS011;964;42.606;23.588;2022-07-09T04:00:32;5.37;;;4.33;;
1925;SDS011;964;42.606;23.588;2022-07-09T04:02:59;7.37;;;4.70;;
1925;SDS011;964;42.606;23.588;2022-07-09T04:05:25;4.97;;;4.20;;
1925;SDS011;964;42.606;23.588;2022-07-09T04:07:52;4.70;;;4.10;;
1925;SDS011;964;42.606;23.588;2022-07-09T04:10:19;4.57;;;4.13;;
1925;SDS011;964;42.606;23.588;2022-07-09T04:12:47;5.20;;;3.97;;
1925;SDS011;964;42.606;23.588;2022-07-09T04:15:14;4.53;;;4.03;;
1925;SDS011;964;42.606;23.588;2022-07-09T04:17:40;5.30;;;4.80;;
1925;SDS011;964;42.606;23.588;2022-07-09T04:20:08;5.00;;;4.20;;
1925;SDS011;964;42.606;23.588;2022-07-09T04:22:35;5.00;;;4.50;;
1925;SDS011;964;42.606;23.588;2022-07-09T04:25:02;4.07;;;3.77;;
1925;SDS011;964;42.606;23.588;2022-07-09T04:27:29;4.90;;;4.30;;
1925;SDS011;964;42.606;23.588;2022-07-09T04:29:57;6.07;;;5.47;;
1925;SDS011;964;42.606;23.588;2022-07-09T04:32:24;6.10;;;4.97;;
1925;SDS011;964;42.606;23.588;2022-07-09T04:34:51;4.63;;;4.23;;
1925;SDS011;964;42.606;23.588;2022-07-09T04:37:17;5.20;;;4.57;;
1925;SDS011;964;42.606;23.588;2022-07-09T04:39:44;5.40;;;4.90;;
1925;SDS011;964;42.606;23.588;2022-07-09T04:42:11;4.83;;;4.33;;
1925;SDS011;964;42.606;23.588;2022-07-09T04:44:38;5.77;;;4.60;;
1925;SDS011;964;42.606;23.588;2022-07-09T04:47:08;5.87;;;5.10;;
1925;SDS011;964;42.606;23.588;2022-07-09T04:49:35;5.40;;;4.60;;
1925;SDS011;964;42.606;23.588;2022-07-09T04:52:02;5.47;;;4.60;;
1925;SDS011;964;42.606;23.588;2022-07-09T04:54:29;4.67;;;4.27;;
1925;SDS011;964;42.606;23.588;2022-07-09T04:56:56;5.10;;;4.53;;
1925;SDS011;964;42.606;23.588;2022-07-09T04:59:22;5.43;;;4.37;;
1925;SDS011;964;42.606;23.588;2022-07-09T05:01:49;4.93;;;4.40;;
1925;SDS011;964;42.606;23.588;2022-07-09T05:04:17;5.03;;;4.53;;
1925;SDS011;964;42.606;23.588;2022-07-09T05:06:44;8.90;;;5.50;;
1925;SDS011;964;42.606;23.588;2022-07-09T05:09:11;6.43;;;4.87;;
1925;SDS011;964;42.606;23.588;2022-07-09T05:11:37;5.20;;;4.70;;
1925;SDS011;964;42.606;23.588;2022-07-09T05:14:04;5.50;;;4.93;;
1925;SDS011;964;42.606;23.588;2022-07-09T05:16:31;5.20;;;4.70;;
1925;SDS011;964;42.606;23.588;2022-07-09T05:18:58;5.17;;;4.67;;
1925;SDS011;964;42.606;23.588;2022-07-09T05:21:27;4.30;;;3.90;;
1925;SDS011;964;42.606;23.588;2022-07-09T05:23:53;5.27;;;4.73;;
1925;SDS011;964;42.606;23.588;2022-07-09T05:26:20;10.63;;;5.90;;
1925;SDS011;964;42.606;23.588;2022-07-09T05:28:47;5.03;;;4.60;;
1925;SDS011;964;42.606;23.588;2022-07-09T05:31:16;5.70;;;5.20;;
1925;SDS011;964;42.606;23.588;2022-07-09T05:33:43;5.07;;;4.57;;
1925;SDS011;964;42.606;23.588;2022-07-09T05:36:10;7.00;;;5.00;;
1925;SDS011;964;42.606;23.588;2022-07-09T05:38:38;6.30;;;5.20;;
1925;SDS011;964;42.606;23.588;2022-07-09T05:41:04;5.40;;;4.73;;
1925;SDS011;964;42.606;23.588;2022-07-09T05:43:32;4.90;;;4.50;;
1925;SDS011;964;42.606;23.588;2022-07-09T05:45:59;6.60;;;5.83;;
1925;SDS011;964;42.606;23.588;2022-07-09T05:48:25;5.07;;;4.57;;
1925;SDS011;964;42.606;23.588;2022-07-09T05:50:52;5.60;;;4.70;;
1925;SDS011;964;42.606;23.588;2022-07-09T05:53:19;5.70;;;5.20;;
1925;SDS011;964;42.606;23.588;2022-07-09T05:55:48;5.07;;;4.50;;
1925;SDS011;964;42.606;23.588;2022-07-09T05:58:14;5.57;;;5.07;;
1925;SDS011;964;42.606;23.588;2022-07-09T06:00:41;7.10;;;5.70;;
1925;SDS011;964;42.606;23.588;2022-07-09T06:03:08;5.57;;;4.77;;
1925;SDS011;964;42.606;23.588;2022-07-09T06:05:34;6.40;;;4.90;;
1925;SDS011;964;42.606;23.588;2022-07-09T06:08:01;5.30;;;4.80;;
1925;SDS011;964;42.606;23.588;2022-07-09T06:10:28;5.30;;;4.70;;
1925;SDS011;964;42.606;23.588;2022-07-09T06:12:56;5.53;;;4.63;;
1925;SDS011;964;42.606;23.588;2022-07-09T06:15:23;6.10;;;5.17;;
1925;SDS011;964;42.606;23.588;2022-07-09T06:17:49;5.33;;;4.83;;
1925;SDS011;964;42.606;23.588;2022-07-09T06:20:16;5.63;;;5.13;;
1925;SDS011;964;42.606;23.588;2022-07-09T06:22:43;6.50;;;5.30;;
1925;SDS011;964;42.606;23.588;2022-07-09T06:25:10;5.23;;;4.70;;
1925;SDS011;964;42.606;23.588;2022-07-09T06:27:36;5.50;;;4.90;;
1925;SDS011;964;42.606;23.588;2022-07-09T06:30:07;5.67;;;5.00;;
1925;SDS011;964;42.606;23.588;2022-07-09T06:32:34;6.50;;;5.80;;
1925;SDS011;964;42.606;23.588;2022-07-09T06:35:01;4.93;;;4.47;;
1925;SDS011;964;42.606;23.588;2022-07-09T06:37:29;5.73;;;4.90;;
1925;SDS011;964;42.606;23.588;2022-07-09T06:39:55;7.13;;;4.30;;
1925;SDS011;964;42.606;23.588;2022-07-09T06:42:24;5.23;;;4.80;;
1925;SDS011;964;42.606;23.588;2022-07-09T06:44:51;4.93;;;4.53;;
1925;SDS011;964;42.606;23.588;2022-07-09T06:47:19;6.33;;;5.73;;
1925;SDS011;964;42.606;23.588;2022-07-09T06:49:46;5.30;;;4.70;;
1925;SDS011;964;42.606;23.588;2022-07-09T06:52:13;5.43;;;4.70;;
1925;SDS011;964;42.606;23.588;2022-07-09T06:54:40;6.87;;;4.67;;
1925;SDS011;964;42.606;23.588;2022-07-09T06:57:06;4.50;;;4.10;;
1925;SDS011;964;42.606;23.588;2022-07-09T06:59:35;4.47;;;4.07;;
1925;SDS011;964;42.606;23.588;2022-07-09T07:02:01;5.27;;;4.77;;
1925;SDS011;964;42.606;23.588;2022-07-09T07:04:30;4.40;;;3.93;;
1925;SDS011;964;42.606;23.588;2022-07-09T07:06:57;4.70;;;4.30;;
1925;SDS011;964;42.606;23.588;2022-07-09T07:09:23;4.47;;;4.07;;
1925;SDS011;964;42.606;23.588;2022-07-09T07:11:50;5.40;;;4.90;;
1925;SDS011;964;42.606;23.588;2022-07-09T07:14:17;4.43;;;4.03;;
1925;SDS011;964;42.606;23.588;2022-07-09T07:16:44;4.87;;;4.47;;
1925;SDS011;964;42.606;23.588;2022-07-09T07:19:11;5.03;;;4.57;;
1925;SDS011;964;42.606;23.588;2022-07-09T07:21:39;7.83;;;4.60;;
1925;SDS011;964;42.606;23.588;2022-07-09T07:24:06;4.77;;;4.30;;
1925;SDS011;964;42.606;23.588;2022-07-09T07:26:33;5.10;;;4.60;;
1925;SDS011;964;42.606;23.588;2022-07-09T07:29:01;6.90;;;4.40;;
1925;SDS011;964;42.606;23.588;2022-07-09T07:31:28;6.63;;;4.67;;
1925;SDS011;964;42.606;23.588;2022-07-09T07:33:55;5.43;;;4.93;;
1925;SDS011;964;42.606;23.588;2022-07-09T07:36:21;6.70;;;4.80;;
1925;SDS011;964;42.606;23.588;2022-07-09T07:38:49;5.00;;;4.37;;
1925;SDS011;964;42.606;23.588;2022-07-09T07:41:16;4.80;;;4.30;;
1925;SDS011;964;42.606;23.588;2022-07-09T07:43:43;4.50;;;4.13;;
1925;SDS011;964;42.606;23.588;2022-07-09T07:46:10;5.10;;;4.60;;
1925;SDS011;964;42.606;23.588;2022-07-09T07:48:37;5.27;;;4.77;;
1925;SDS011;964;42.606;23.588;2022-07-09T07:51:06;5.50;;;5.00;;
1925;SDS011;964;42.606;23.588;2022-07-09T07:53:33;7.63;;;5.10;;
1925;SDS011;964;42.606;23.588;2022-07-09T07:56:01;6.23;;;4.90;;
1925;SDS011;964;42.606;23.588;2022-07-09T07:58:28;4.87;;;4.47;;
1925;SDS011;964;42.606;23.588;2022-07-09T08:00:55;6.03;;;5.43;;
1925;SDS011;964;42.606;23.588;2022-07-09T08:03:22;5.60;;;5.10;;
1925;SDS011;964;42.606;23.588;2022-07-09T08:05:49;5.70;;;5.17;;
1925;SDS011;964;42.606;23.588;2022-07-09T08:08:16;5.97;;;5.00;;
1925;SDS011;964;42.606;23.588;2022-07-09T08:10:44;5.10;;;4.70;;
1925;SDS011;964;42.606;23.588;2022-07-09T08:13:12;8.50;;;5.13;;
1925;SDS011;964;42.606;23.588;2022-07-09T08:15:39;4.83;;;4.43;;
1925;SDS011;964;42.606;23.588;2022-07-09T08:18:06;4.50;;;4.10;;
1925;SDS011;964;42.606;23.588;2022-07-09T08:20:37;5.47;;;4.97;;
1925;SDS011;964;42.606;23.588;2022-07-09T08:23:04;5.40;;;4.90;;
1925;SDS011;964;42.606;23.588;2022-07-09T08:25:30;5.43;;;4.90;;
1925;SDS011;964;42.606;23.588;2022-07-09T08:27:57;5.53;;;4.97;;
1925;SDS011;964;42.606;23.588;2022-07-09T08:30:26;6.93;;;5.57;;
1925;SDS011;964;42.606;23.588;2022-07-09T08:32:52;6.33;;;5.23;;
1925;SDS011;964;42.606;23.588;2022-07-09T08:35:19;5.77;;;5.27;;
1925;SDS011;964;42.606;23.588;2022-07-09T08:37:46;5.60;;;5.10;;
1925;SDS011;964;42.606;23.588;2022-07-09T08:40:12;6.10;;;5.50;;
1925;SDS011;964;42.606;23.588;2022-07-09T08:42:39;5.90;;;5.20;;
1925;SDS011;964;42.606;23.588;2022-07-09T08:45:07;5.40;;;4.90;;
1925;SDS011;964;42.606;23.588;2022-07-09T08:47:39;5.40;;;4.90;;
1925;SDS011;964;42.606;23.588;2022-07-09T08:50:07;6.03;;;5.03;;
1925;SDS011;964;42.606;23.588;2022-07-09T08:52:35;5.90;;;5.37;;
1925;SDS011;964;42.606;23.588;2022-07-09T08:55:02;5.27;;;4.77;;
1925;SDS011;964;42.606;23.588;2022-07-09T08:57:29;7.63;;;5.33;;
1925;SDS011;964;42.606;23.588;2022-07-09T08:59:56;6.73;;;5.20;;
1925;SDS011;964;42.606;23.588;2022-07-09T09:02:23;8.30;;;5.80;;
1925;SDS011;964;42.606;23.588;2022-07-09T09:04:51;5.77;;;5.27;;
1925;SDS011;964;42.606;23.588;2022-07-09T09:07:21;8.17;;;5.77;;
1925;SDS011;964;42.606;23.588;2022-07-09T09:09:47;7.63;;;5.50;;
1925;SDS011;964;42.606;23.588;2022-07-09T09:12:14;5.53;;;5.03;;
1925;SDS011;964;42.606;23.588;2022-07-09T09:14:47;5.93;;;5.40;;
1925;SDS011;964;42.606;23.588;2022-07-09T09:17:15;6.40;;;5.13;;
1925;SDS011;964;42.606;23.588;2022-07-09T09:19:42;5.63;;;5.13;;
1925;SDS011;964;42.606;23.588;2022-07-09T09:22:13;5.07;;;4.30;;
1925;SDS011;964;42.606;23.588;2022-07-09T09:24:42;5.17;;;4.70;;
1925;SDS011;964;42.606;23.588;2022-07-09T09:27:08;6.13;;;4.40;;
1925;SDS011;964;42.606;23.588;2022-07-09T09:29:35;6.13;;;5.53;;
1925;SDS011;964;42.606;23.588;2022-07-09T09:32:08;5.40;;;5.00;;
1925;SDS011;964;42.606;23.588;2022-07-09T09:34:36;6.77;;;6.07;;
1925;SDS011;964;42.606;23.588;2022-07-09T09:37:06;7.30;;;6.70;;
1925;SDS011;964;42.606;23.588;2022-07-09T09:39:35;6.83;;;6.20;;
1925;SDS011;964;42.606;23.588;2022-07-09T09:42:02;7.17;;;6.00;;
1925;SDS011;964;42.606;23.588;2022-07-09T09:44:30;6.00;;;5.40;;
1925;SDS011;964;42.606;23.588;2022-07-09T09:47:02;7.03;;;6.33;;
1925;SDS011;964;42.606;23.588;2022-07-09T09:49:30;6.93;;;6.27;;
1925;SDS011;964;42.606;23.588;2022-07-09T09:52:00;6.10;;;5.30;;
1925;SDS011;964;42.606;23.588;2022-07-09T09:54:30;10.37;;;9.27;;
1925;SDS011;964;42.606;23.588;2022-07-09T09:56:59;18.10;;;12.87;;
1925;SDS011;964;42.606;23.588;2022-07-09T09:59:29;7.50;;;6.90;;
1925;SDS011;964;42.606;23.588;2022-07-09T10:01:55;6.57;;;6.00;;
1925;SDS011;964;42.606;23.588;2022-07-09T10:04:23;5.33;;;4.83;;
1925;SDS011;964;42.606;23.588;2022-07-09T10:06:50;6.30;;;5.70;;
1925;SDS011;964;42.606;23.588;2022-07-09T10:09:19;5.57;;;4.80;;
1925;SDS011;964;42.606;23.588;2022-07-09T10:11:47;5.50;;;5.00;;
1925;SDS011;964;42.606;23.588;2022-07-09T10:14:17;6.60;;;5.97;;
1925;SDS011;964;42.606;23.588;2022-07-09T10:16:55;7.90;;;7.10;;
1925;SDS011;964;42.606;23.588;2022-07-09T10:19:23;8.83;;;7.50;;
1925;SDS011;964;42.606;23.588;2022-07-09T10:21:51;8.77;;;6.50;;
1925;SDS011;964;42.606;23.588;2022-07-09T10:24:23;5.30;;;4.90;;
1925;SDS011;964;42.606;23.588;2022-07-09T10:26:51;4.90;;;4.50;;
1925;SDS011;964;42.606;23.588;2022-07-09T10:29:22;4.60;;;4.20;;
1925;SDS011;964;42.606;23.588;2022-07-09T10:31:50;6.13;;;5.43;;
1925;SDS011;964;42.606;23.588;2022-07-09T10:34:24;8.53;;;7.73;;
1925;SDS011;964;42.606;23.588;2022-07-09T10:37:16;30.10;;;25.03;;
1925;SDS011;964;42.606;23.588;2022-07-09T10:39:52;10.83;;;9.77;;
1925;SDS011;964;42.606;23.588;2022-07-09T10:42:19;5.23;;;4.73;;
1925;SDS011;964;42.606;23.588;2022-07-09T10:44:49;5.20;;;4.80;;
1925;SDS011;964;42.606;23.588;2022-07-09T10:47:17;10.50;;;8.87;;
1925;SDS011;964;42.606;23.588;2022-07-09T10:49:44;6.37;;;5.70;;
1925;SDS011;964;42.606;23.588;2022-07-09T10:52:10;4.90;;;4.50;;
1925;SDS011;964;42.606;23.588;2022-07-09T10:54:44;5.73;;;5.13;;
1925;SDS011;964;42.606;23.588;2022-07-09T10:57:12;6.90;;;6.30;;
1925;SDS011;964;42.606;23.588;2022-07-09T10:59:44;6.23;;;5.63;;
1925;SDS011;964;42.606;23.588;2022-07-09T11:02:18;8.87;;;7.00;;
1925;SDS011;964;42.606;23.588;2022-07-09T11:04:48;8.17;;;6.43;;
1925;SDS011;964;42.606;23.588;2022-07-09T11:07:20;5.70;;;5.20;;
1925;SDS011;964;42.606;23.588;2022-07-09T11:09:48;7.37;;;6.37;;
1925;SDS011;964;42.606;23.588;2022-07-09T11:12:15;13.60;;;9.27;;
1925;SDS011;964;42.606;23.588;2022-07-09T11:14:43;9.10;;;7.87;;
1925;SDS011;964;42.606;23.588;2022-07-09T11:17:13;6.07;;;5.47;;
1925;SDS011;964;42.606;23.588;2022-07-09T11:19:43;6.70;;;6.00;;
1925;SDS011;964;42.606;23.588;2022-07-09T11:22:09;6.50;;;5.80;;
1925;SDS011;964;42.606;23.588;2022-07-09T11:24:36;6.23;;;5.63;;
1925;SDS011;964;42.606;23.588;2022-07-09T11:27:04;6.60;;;6.00;;
1925;SDS011;964;42.606;23.588;2022-07-09T11:29:31;7.00;;;6.30;;
1925;SDS011;964;42.606;23.588;2022-07-09T11:31:58;7.60;;;6.70;;
1925;SDS011;964;42.606;23.588;2022-07-09T11:34:27;7.13;;;6.43;;
1925;SDS011;964;42.606;23.588;2022-07-09T11:36:55;7.37;;;6.67;;
1925;SDS011;964;42.606;23.588;2022-07-09T11:39:24;7.47;;;6.77;;
1925;SDS011;964;42.606;23.588;2022-07-09T11:41:52;8.00;;;7.20;;
1925;SDS011;964;42.606;23.588;2022-07-09T11:44:19;6.40;;;5.90;;
1925;SDS011;964;42.606;23.588;2022-07-09T11:47:00;7.23;;;6.50;;
1925;SDS011;964;42.606;23.588;2022-07-09T11:49:31;5.17;;;4.77;;
1925;SDS011;964;42.606;23.588;2022-07-09T11:52:04;5.53;;;5.03;;
1925;SDS011;964;42.606;23.588;2022-07-09T11:54:53;4.57;;;4.17;;
1925;SDS011;964;42.606;23.588;2022-07-09T11:57:20;5.60;;;4.77;;
1925;SDS011;964;42.606;23.588;2022-07-09T11:59:48;5.60;;;5.10;;
1925;SDS011;964;42.606;23.588;2022-07-09T12:02:22;4.27;;;3.87;;
1925;SDS011;964;42.606;23.588;2022-07-09T12:04:49;3.40;;;3.10;;
1925;SDS011;964;42.606;23.588;2022-07-09T12:07:17;3.93;;;3.63;;
1925;SDS011;964;42.606;23.588;2022-07-09T12:09:44;3.93;;;3.33;;
1925;SDS011;964;42.606;23.588;2022-07-09T12:12:10;3.93;;;3.63;;
1925;SDS011;964;42.606;23.588;2022-07-09T12:14:38;4.53;;;3.83;;
1925;SDS011;964;42.606;23.588;2022-07-09T12:17:05;4.33;;;3.00;;
1925;SDS011;964;42.606;23.588;2022-07-09T12:19:32;3.17;;;2.87;;
1925;SDS011;964;42.606;23.588;2022-07-09T12:21:58;3.40;;;3.10;;
1925;SDS011;964;42.606;23.588;2022-07-09T12:24:26;3.53;;;3.23;;
1925;SDS011;964;42.606;23.588;2022-07-09T12:26:53;2.13;;;2.03;;
1925;SDS011;964;42.606;23.588;2022-07-09T12:29:20;3.77;;;2.40;;
1925;SDS011;964;42.606;23.588;2022-07-09T12:31:46;2.00;;;1.90;;
1925;SDS011;964;42.606;23.588;2022-07-09T12:34:13;2.40;;;2.20;;
1925;SDS011;964;42.606;23.588;2022-07-09T12:36:40;2.47;;;2.27;;
1925;SDS011;964;42.606;23.588;2022-07-09T12:39:07;2.40;;;2.23;;
1925;SDS011;964;42.606;23.588;2022-07-09T12:41:35;2.20;;;2.00;;
1925;SDS011;964;42.606;23.588;2022-07-09T12:44:01;2.57;;;2.37;;
1925;SDS011;964;42.606;23.588;2022-07-09T12:46:28;2.27;;;2.07;;
1925;SDS011;964;42.606;23.588;2022-07-09T12:48:56;2.30;;;2.10;;
1925;SDS011;964;42.606;23.588;2022-07-09T12:51:22;2.47;;;2.30;;
1925;SDS011;964;42.606;23.588;2022-07-09T12:53:49;2.57;;;2.37;;
1925;SDS011;964;42.606;23.588;2022-07-09T12:56:16;2.80;;;2.60;;
1925;SDS011;964;42.606;23.588;2022-07-09T12:58:44;2.50;;;2.30;;
1925;SDS011;964;42.606;23.588;2022-07-09T13:01:11;2.93;;;2.73;;
1925;SDS011;964;42.606;23.588;2022-07-09T13:03:37;4.50;;;3.10;;
1925;SDS011;964;42.606;23.588;2022-07-09T13:06:04;2.67;;;2.27;;
1925;SDS011;964;42.606;23.588;2022-07-09T13:08:51;2.90;;;2.70;;
1925;SDS011;964;42.606;23.588;2022-07-09T13:11:18;3.47;;;3.17;;
1925;SDS011;964;42.606;23.588;2022-07-09T13:13:46;3.97;;;2.93;;
1925;SDS011;964;42.606;23.588;2022-07-09T13:16:13;2.80;;;2.60;;
1925;SDS011;964;42.606;23.588;2022-07-09T13:18:40;3.00;;;2.70;;
1925;SDS011;964;42.606;23.588;2022-07-09T13:21:08;3.40;;;3.10;;
1925;SDS011;964;42.606;23.588;2022-07-09T13:23:36;2.80;;;2.60;;
1925;SDS011;964;42.606;23.588;2022-07-09T13:26:03;3.30;;;3.03;;
1925;SDS011;964;42.606;23.588;2022-07-09T13:28:29;4.33;;;2.90;;
1925;SDS011;964;42.606;23.588;2022-07-09T13:30:58;3.07;;;2.80;;
1925;SDS011;964;42.606;23.588;2022-07-09T13:33:24;3.07;;;2.77;;
1925;SDS011;964;42.606;23.588;2022-07-09T13:35:51;3.30;;;3.00;;
1925;SDS011;964;42.606;23.588;2022-07-09T13:38:18;3.70;;;3.40;;
1925;SDS011;964;42.606;23.588;2022-07-09T13:40:44;6.30;;;3.17;;
1925;SDS011;964;42.606;23.588;2022-07-09T13:43:11;3.73;;;3.40;;
1925;SDS011;964;42.606;23.588;2022-07-09T13:45:38;3.37;;;3.17;;
1925;SDS011;964;42.606;23.588;2022-07-09T13:48:06;4.40;;;3.20;;
1925;SDS011;964;42.606;23.588;2022-07-09T13:50:33;3.27;;;3.00;;
1925;SDS011;964;42.606;23.588;2022-07-09T13:53:01;7.30;;;3.13;;
1925;SDS011;964;42.606;23.588;2022-07-09T13:55:28;3.63;;;3.23;;
1925;SDS011;964;42.606;23.588;2022-07-09T13:57:56;3.50;;;3.20;;
1925;SDS011;964;42.606;23.588;2022-07-09T14:00:22;3.70;;;3.23;;
1925;SDS011;964;42.606;23.588;2022-07-09T14:02:50;3.50;;;3.20;;
1925;SDS011;964;42.606;23.588;2022-07-09T14:05:18;4.47;;;3.90;;
1925;SDS011;964;42.606;23.588;2022-07-09T14:07:45;3.57;;;3.27;;
1925;SDS011;964;42.606;23.588;2022-07-09T14:10:13;3.90;;;3.50;;
1925;SDS011;964;42.606;23.588;2022-07-09T14:12:40;3.97;;;3.67;;
1925;SDS011;964;42.606;23.588;2022-07-09T14:15:07;5.43;;;3.90;;
1925;SDS011;964;42.606;23.588;2022-07-09T14:17:35;3.90;;;3.50;;
1925;SDS011;964;42.606;23.588;2022-07-09T14:20:02;4.33;;;3.43;;
1925;SDS011;964;42.606;23.588;2022-07-09T14:22:30;5.50;;;3.73;;
1925;SDS011;964;42.606;23.588;2022-07-09T14:24:57;3.47;;;3.20;;
1925;SDS011;964;42.606;23.588;2022-07-09T14:27:24;3.90;;;3.60;;
1925;SDS011;964;42.606;23.588;2022-07-09T14:29:50;3.00;;;2.80;;
1925;SDS011;964;42.606;23.588;2022-07-09T14:32:17;4.33;;;3.93;;
1925;SDS011;964;42.606;23.588;2022-07-09T14:34:44;5.67;;;3.73;;
1925;SDS011;964;42.606;23.588;2022-07-09T14:37:10;3.57;;;3.33;;
1925;SDS011;964;42.606;23.588;2022-07-09T14:39:38;3.67;;;3.37;;
1925;SDS011;964;42.606;23.588;2022-07-09T14:42:05;3.50;;;3.20;;
1925;SDS011;964;42.606;23.588;2022-07-09T14:44:32;4.07;;;3.67;;
1925;SDS011;964;42.606;23.588;2022-07-09T14:46:59;3.50;;;3.20;;
1925;SDS011;964;42.606;23.588;2022-07-09T14:49:25;3.03;;;2.77;;
1925;SDS011;964;42.606;23.588;2022-07-09T14:51:53;3.87;;;3.57;;
1925;SDS011;964;42.606;23.588;2022-07-09T14:54:20;3.50;;;3.20;;
1925;SDS011;964;42.606;23.588;2022-07-09T14:56:48;4.23;;;3.53;;
1925;SDS011;964;42.606;23.588;2022-07-09T14:59:14;3.13;;;2.93;;
1925;SDS011;964;42.606;23.588;2022-07-09T15:01:41;3.20;;;3.00;;
1925;SDS011;964;42.606;23.588;2022-07-09T15:04:08;4.00;;;3.20;;
1925;SDS011;964;42.606;23.588;2022-07-09T15:06:35;3.30;;;3.00;;
1925;SDS011;964;42.606;23.588;2022-07-09T15:09:02;3.10;;;2.90;;
1925;SDS011;964;42.606;23.588;2022-07-09T15:11:29;3.80;;;3.50;;
1925;SDS011;964;42.606;23.588;2022-07-09T15:13:57;4.10;;;3.50;;
1925;SDS011;964;42.606;23.588;2022-07-09T15:16:23;3.67;;;3.37;;